WEATHER DATA

YESTERDAY
Time Temp. Dewp. Hum. Wind dir Wind speed Wind gust Bar. 1h Prec. 24h Prec.
00:00 10.1 7 81 225 1.7 2.8 1026.8 0.0000 0.0000
00:20 9.8 6.9 82 231 1.1 1.9 1026.8 0.0000 0.0000
00:31 9.7 6.8 82 225 1.1 1.9 1026.8 0.0000 0.0000
00:41 9.7 6.8 82 225 1.1 1.9 1026.7 0.0000 0.0000
00:51 9.6 6.7 82 227 0.8 1.7 1026.6 0.0000 0.0000
01:00 9.5 6.6 82 233 0.8 1.9 1026.6 0.0000 0.0000
01:11 9.5 6.6 82 242 1.1 1.7 1026.6 0.0000 0.0000
01:21 9.5 6.6 82 237 0.8 1.7 1026.7 0.0000 0.0000
01:31 9.4 6.5 82 239 0.8 1.9 1026.7 0.0000 0.0000
01:42 9.4 6.5 82 229 0.3 1.1 1026.7 0.0000 0.0000
01:51 9.3 6.4 82 250 0.8 1.1 1026.6 0.0000 0.0000
02:01 9.4 6.5 82 270 0.3 1.1 1026.6 0.0000 0.0000
02:11 9.3 6.4 82 270 0.3 1.7 1026.5 0.0000 0.0000
02:27 9.3 6.4 82 270 0.3 1.1 1026.4 0.0000 0.0000
02:37 9.2 6.3 82 248 0.8 1.7 1026.5 0.0000 0.0000
02:47 9.1 6.2 82 270 0.3 1.1 1026.4 0.0000 0.0000
02:57 9.1 6.2 82 270 0.3 1.1 1026.4 0.0000 0.0000
03:07 9.1 6.2 82 236 0.3 1.1 1026.4 0.0000 0.0000
03:17 9 6.3 83 246 0.8 1.1 1026.3 0.0000 0.0000
03:27 8.9 6.2 83 259 0.8 1.1 1026.3 0.0000 0.0000
03:38 8.9 6.2 83 270 0.8 1.1 1026.3 0.0000 0.0000
03:47 8.8 6.1 83 270 0.3 1.1 1026.3 0.0000 0.0000
03:57 8.8 6.1 83 309 0.3 1.1 1026.3 0.0000 0.0000
04:08 8.7 6 83 270 0.3 1.1 1026.3 0.0000 0.0000
04:18 8.7 6 83 270 0.3 1.1 1026.4 0.0000 0.0000
04:28 8.6 5.9 83 270 0.3 1.1 1026.5 0.0000 0.0000
04:38 8.5 5.8 83 248 0.8 1.7 1026.5 0.0000 0.0000
04:48 8.5 6 84 239 0.8 1.7 1026.4 0.0000 0.0000
04:58 8.4 5.9 84 270 0.3 1.7 1026.3 0.0000 0.0000
05:08 8.3 5.8 84 270 0.3 1.1 1026.2 0.0000 0.0000
05:19 8.3 5.8 84 270 0.3 1.1 1026.3 0.0000 0.0000
05:29 8.2 5.7 84 235 0.8 1.7 1026.2 0.0000 0.0000
05:39 8.2 5.7 84 270 0.3 1.1 1026.2 0.0000 0.0000
05:48 8.1 5.6 84 244 0.8 1.1 1026.2 0.0000 0.0000
05:59 8.1 5.6 84 270 0.3 1.1 1026.2 0.0000 0.0000
06:09 8 5.5 84 270 0.3 1.7 1026.3 0.0000 0.0000
06:19 7.9 5.5 85 251 0.8 1.7 1026.2 0.0000 0.0000
06:29 7.9 5.5 85 252 0.8 1.7 1026.2 0.0000 0.0000
06:40 7.8 5.4 85 239 0.3 1.1 1026.1 0.0000 0.0000
06:49 7.8 5.4 85 237 0.3 1.1 1026.2 0.0000 0.0000
06:59 7.8 5.4 85 270 0.3 1.1 1026.2 0.0000 0.0000
07:10 7.8 5.4 85 270 0.3 1.1 1026.3 0.0000 0.0000
07:20 7.8 5.4 85 182 0.3 1.1 1026.4 0.0000 0.0000
07:30 7.8 5.4 85 182 0.3 1.7 1026.4 0.0000 0.0000
07:40 7.8 5.6 86 220 0.8 1.9 1026.4 0.0000 0.0000
07:50 7.9 5.7 86 244 3.6 6.9 1026.6 0.0000 0.0000
08:00 8 5.8 86 216 5 8.3 1026.7 0.0000 0.0000
08:10 8 5.8 86 214 5 9.4 1026.6 0.0000 0.0000
08:21 8.1 5.9 86 221 4.4 8.9 1026.9 0.0000 0.0000
08:25 8.2 6 86 4.2 11.9 1026.9 0.0000 0.0000
08:35 8.3 6.3 87 2.8 7.5 1026.9 0.0000 0.0000
08:48 8.5 6.5 87 2.8 11.9 1026.9 0.0000 0.0000
08:57 8.6 6.6 87 2.8 8.9 1026.8 0.0000 0.0000
09:08 8.8 6.8 87 101 2.8 8.3 1026.9 0.0000 0.0000
09:17 9 7 87 100 3.3 8.6 1027.1 0.0000 0.0000
09:27 9.1 7.1 87 90 3.3 9.4 1027 0.0000 0.0000
09:37 9.3 7.3 87 82 2.8 6.7 1027.1 0.0000 0.0000
09:48 9.5 7.6 88 85 2.8 8.3 1027.1 0.0000 0.0000
09:58 9.7 7.8 88 164 3.6 8.3 1027.2 0.0000 0.0000
10:07 9.9 8 88 93 3.3 8.3 1027.2 0.0000 0.0000
10:18 10.1 8.2 88 187 3.3 7.5 1027.2 0.0000 0.0000
10:28 10.2 8.1 87 206 3.3 8.6 1027.2 0.0000 0.0000
10:38 10.4 8.3 87 172 3.3 8.9 1027.1 0.0000 0.0000
10:48 10.6 8.5 87 137 3.3 9.7 1027.2 0.0000 0.0000
10:58 10.7 8.6 87 135 3.3 9.4 1027.1 0.0000 0.0000
11:08 10.9 8.8 87 84 4.2 15.3 1027.2 0.0000 0.0000
11:18 11.1 9 87 146 4.2 10.6 1027.1 0.0000 0.0000
11:28 11.4 9.3 87 192 6.1 12.2 1027 0.0000 0.0000
11:38 11.6 9.3 86 147 6.1 11.9 1026.8 0.0000 0.0000
11:48 11.9 9.6 86 225 5.3 9.7 1026.8 0.0000 0.0000
11:58 12.1 9.8 86 168 5.3 10.6 1026.9 0.0000 0.0000
12:09 12.3 9.9 85 224 3.6 8.3 1026.9 0.0000 0.0000
12:15 12.4 9.8 84 223 2.5 9.4 1026.8 0.0000 0.0000
12:25 12.4 9.6 83 211 5.8 11.4 1026.7 0.0000 0.0000
12:39 12.7 9.7 82 143 6.1 14.4 1026.7 0.0000 0.0000
12:49 12.8 9.6 81 195 5 9.4 1026.7 0.0000 0.0000
12:59 12.9 9.7 81 216 5.3 9.7 1026.6 0.0000 0.0000
13:05 13 9.6 80 163 7.5 14.4 1026.5 0.0000 0.0000
13:20 13.2 9.6 79 152 6.9 16.1 1026.4 0.0000 0.0000
13:31 13.3 9.7 79 186 6.7 12.2 1026.3 0.0000 0.0000
13:40 13.4 9.6 78 196 6.9 18.1 1026.3 0.0000 0.0000
13:50 13.5 9.9 79 137 5.8 12.8 1026.2 0.0000 0.0000
14:00 13.6 9.8 78 5.3 10.6 1026.1 0.0000 0.0000
14:10 13.8 9.8 77 241 5 10.3 1026.1 0.0000 0.0000
14:20 13.9 9.5 75 5 9.7 1026 0.0000 0.0000
14:31 13.9 9.5 75 189 0.8 1.9 1025.9 0.0000 0.0000
14:43 14.1 9.7 75 215 1.9 7.5 1025.9 0.0000 0.0000
14:44 14.2 9.8 75 227 3.3 11.4 1025.9 0.0000 0.0000
14:54 14.4 9.8 74 241 4.2 8.9 1025.8 0.0000 0.0000
15:12 14.6 10 74 239 5 10.6 1025.6 0.0000 0.0000
15:22 14.7 9.9 73 236 5.3 11.9 1025.5 0.0000 0.0000
15:32 14.9 10.1 73 229 4.2 8.9 1025.5 0.0000 0.0000
15:42 15 10 72 196 0.3 1.9 1025.3 0.0000 0.0000
15:47 15 10 72 218 1.7 5 1025.1 0.0000 0.0000
15:56 15.1 10.1 72 228 2.8 5.3 1025.1 0.0000 0.0000
16:06 15.2 10 71 226 2.5 4.2 1025.1 0.0000 0.0000
16:16 15.2 10 71 227 1.7 4.2 1025.1 0.0000 0.0000
16:27 15.2 9.8 70 220 1.1 3.3 1024.8 0.0000 0.0000
16:37 15.3 9.7 69 150 0.8 1.7 1024.7 0.0000 0.0000
16:46 15.3 9.9 70 150 0.3 1.7 1024.5 0.0000 0.0000
16:57 15.3 9.9 70 165 0.3 2.5 1024.4 0.0000 0.0000
17:07 15.2 9.8 70 168 0.3 1.7 1024.5 0.0000 0.0000
17:17 15.3 9.4 68 161 0.8 2.5 1024.5 0.0000 0.0000
17:27 15.3 9.4 68 153 0.8 2.8 1024.4 0.0000 0.0000
17:37 15.3 9.4 68 182 0.8 1.7 1024.4 0.0000 0.0000
17:47 15.3 9.4 68 180 0.8 1.9 1024.3 0.0000 0.0000
17:57 15.4 9.1 66 180 0.8 1.9 1024.2 0.0000 0.0000
18:08 15.3 9 66 206 1.1 2.8 1024.1 0.0000 0.0000
18:18 15.3 9 66 210 1.1 2.5 1024.1 0.0000 0.0000
18:27 15.3 9 66 215 1.1 2.5 1024.1 0.0000 0.0000
18:37 15.2 9.1 67 219 1.7 2.5 1024.1 0.0000 0.0000
18:48 15.1 9.2 68 236 1.7 2.8 1024.1 0.0000 0.0000
18:58 14.9 9.3 69 234 1.7 2.8 1024.1 0.0000 0.0000
19:08 14.7 9.3 70 239 1.7 2.8 1024 0.0000 0.0000
19:18 14.5 9.5 72 236 1.9 3.3 1024.1 0.0000 0.0000
19:28 14.3 9.3 72 238 1.7 3.3 1024.1 0.0000 0.0000
19:38 14 9 72 235 1.7 3.3 1024.1 0.0000 0.0000
19:48 13.8 9.1 73 239 1.7 2.8 1024.2 0.0000 0.0000
19:59 13.5 8.8 73 237 1.7 2.8 1024.3 0.0000 0.0000
20:08 13.3 8.8 74 237 1.7 2.8 1024.3 0.0000 0.0000
20:18 13.1 8.6 74 242 1.7 2.5 1024.5 0.0000 0.0000
20:29 12.9 8.6 75 244 1.7 2.8 1024.4 0.0000 0.0000
20:39 12.8 8.5 75 243 1.7 2.8 1024.5 0.0000 0.0000
20:49 12.6 8.5 76 236 1.7 2.5 1024.5 0.0000 0.0000
20:58 12.5 8.4 76 234 1.1 2.5 1024.5 0.0000 0.0000
21:09 12.4 8.5 77 238 1.7 2.5 1024.5 0.0000 0.0000
21:19 12.2 8.3 77 231 1.1 2.5 1024.6 0.0000 0.0000
21:29 12 8.1 77 228 1.1 2.5 1024.5 0.0000 0.0000
21:39 11.9 8.2 78 231 1.1 2.5 1024.5 0.0000 0.0000
21:49 11.8 8.1 78 216 0.8 1.9 1024.3 0.0000 0.0000
22:09 11.6 8.1 79 235 1.1 1.9 1024.4 0.0000 0.0000
22:20 11.4 7.9 79 232 1.1 1.9 1024.3 0.0000 0.0000
22:29 11.3 7.8 79 230 1.1 1.9 1024.3 0.0000 0.0000
22:39 11.2 7.9 80 237 1.1 2.5 1024.2 0.0000 0.0000
22:50 11.1 7.8 80 234 1.1 1.9 1024.1 0.0000 0.0000
23:00 11 7.7 80 230 1.1 2.5 1024.1 0.0000 0.0000
23:10 10.9 7.6 80 227 0.8 1.9 1024 0.0000 0.0000
23:19 10.9 7.6 80 227 0.8 1.7 1024 0.0000 0.0000
23:30 10.8 7.7 81 226 1.1 1.9 1023.9 0.0000 0.0000
23:40 10.7 7.6 81 229 0.8 1.7 1023.8 0.0000 0.0000
23:50 10.6 7.5 81 225 0.8 1.7 1023.7 0.0000 0.0000

DAY STATISTIC

2019-09-20
TEMPERATURE
AVERAGE
11.3
HIGH
15.4
17:57
LOW
7.8
06:40
PRESSURE
AVERAGE
1025.8
HIGH
1027.2
09:58
LOW
1023.7
23:50
DEWPOINT
AVERAGE
7.9
HIGH
10.1
15:32
LOW
5.4
06:40
HUMIDITY
AVERAGE
80
HIGH
88
09:48
LOW
66
17:57
WIND SPEED
AVERAGE
2.1
HIGH
7.5
13:05
WIND GUST
AVERAGE
4.7
HIGH
18.1
13:40
WIND DIRECTION
PREVAILING
SW
52.5%
N
0.0
NE
0.0
E
5.0
SE
7.1
S
13.5
SW
52.5
W
17.0
NW
0.7
PRECIPITATION
RAIN HOUR
0.0
RAIN DAY
0.0
TEMPERATURE (°C)
LOW
7.8
HIGH
15.4
AVERAGE
11.3
PRESSURE (hpa)
LOW
1023.7
HIGH
1027.2
AVERAGE
1025.8
DEVICE